sensor_id;sensor_type;location;lat;lon;timestamp;P1;durP1;ratioP1;P2;durP2;ratioP2
44486;SDS011;30191;50.908;6.962;2024-02-21T00:01:56;13.35;;;5.15;;
44486;SDS011;30191;50.908;6.962;2024-02-21T00:04:21;12.68;;;4.72;;
44486;SDS011;30191;50.908;6.962;2024-02-21T00:06:47;15.63;;;5.45;;
44486;SDS011;30191;50.908;6.962;2024-02-21T00:09:12;12.95;;;5.30;;
44486;SDS011;30191;50.908;6.962;2024-02-21T00:11:38;16.23;;;4.95;;
44486;SDS011;30191;50.908;6.962;2024-02-21T00:14:03;13.57;;;5.22;;
44486;SDS011;30191;50.908;6.962;2024-02-21T00:16:29;14.18;;;5.00;;
44486;SDS011;30191;50.908;6.962;2024-02-21T00:18:55;12.98;;;4.97;;
44486;SDS011;30191;50.908;6.962;2024-02-21T00:21:20;11.90;;;4.80;;
44486;SDS011;30191;50.908;6.962;2024-02-21T00:23:46;10.57;;;4.15;;
44486;SDS011;30191;50.908;6.962;2024-02-21T00:26:12;11.15;;;4.85;;
44486;SDS011;30191;50.908;6.962;2024-02-21T00:28:41;10.85;;;4.80;;
44486;SDS011;30191;50.908;6.962;2024-02-21T00:31:06;9.63;;;4.57;;
44486;SDS011;30191;50.908;6.962;2024-02-21T00:33:32;15.93;;;5.30;;
44486;SDS011;30191;50.908;6.962;2024-02-21T00:35:58;12.13;;;5.00;;
44486;SDS011;30191;50.908;6.962;2024-02-21T00:38:23;10.80;;;4.70;;
44486;SDS011;30191;50.908;6.962;2024-02-21T00:40:49;12.30;;;4.82;;
44486;SDS011;30191;50.908;6.962;2024-02-21T00:43:14;10.23;;;4.45;;
44486;SDS011;30191;50.908;6.962;2024-02-21T00:45:40;13.20;;;4.82;;
44486;SDS011;30191;50.908;6.962;2024-02-21T00:48:06;14.18;;;5.22;;
44486;SDS011;30191;50.908;6.962;2024-02-21T00:50:32;13.43;;;4.55;;
44486;SDS011;30191;50.908;6.962;2024-02-21T00:52:57;13.68;;;4.97;;
44486;SDS011;30191;50.908;6.962;2024-02-21T00:55:23;12.63;;;4.70;;
44486;SDS011;30191;50.908;6.962;2024-02-21T00:57:49;12.65;;;5.20;;
44486;SDS011;30191;50.908;6.962;2024-02-21T01:00:14;11.00;;;4.88;;
44486;SDS011;30191;50.908;6.962;2024-02-21T01:02:40;17.65;;;4.82;;
44486;SDS011;30191;50.908;6.962;2024-02-21T01:05:06;10.73;;;4.63;;
44486;SDS011;30191;50.908;6.962;2024-02-21T01:07:32;13.98;;;4.90;;
44486;SDS011;30191;50.908;6.962;2024-02-21T01:09:58;11.80;;;4.78;;
44486;SDS011;30191;50.908;6.962;2024-02-21T01:12:23;15.27;;;4.72;;
44486;SDS011;30191;50.908;6.962;2024-02-21T01:14:49;14.02;;;4.85;;
44486;SDS011;30191;50.908;6.962;2024-02-21T01:17:15;11.90;;;4.80;;
44486;SDS011;30191;50.908;6.962;2024-02-21T01:19:41;12.75;;;4.38;;
44486;SDS011;30191;50.908;6.962;2024-02-21T01:22:06;11.55;;;4.40;;
44486;SDS011;30191;50.908;6.962;2024-02-21T01:24:32;10.00;;;4.10;;
44486;SDS011;30191;50.908;6.962;2024-02-21T01:26:58;9.75;;;4.18;;
44486;SDS011;30191;50.908;6.962;2024-02-21T01:29:24;13.95;;;4.25;;
44486;SDS011;30191;50.908;6.962;2024-02-21T01:31:49;14.85;;;4.60;;
44486;SDS011;30191;50.908;6.962;2024-02-21T01:34:15;11.18;;;4.45;;
44486;SDS011;30191;50.908;6.962;2024-02-21T01:36:41;10.50;;;4.35;;
44486;SDS011;30191;50.908;6.962;2024-02-21T01:39:07;12.77;;;4.65;;
44486;SDS011;30191;50.908;6.962;2024-02-21T01:41:32;12.70;;;4.85;;
44486;SDS011;30191;50.908;6.962;2024-02-21T01:43:58;12.13;;;4.63;;
44486;SDS011;30191;50.908;6.962;2024-02-21T01:46:24;14.35;;;4.88;;
44486;SDS011;30191;50.908;6.962;2024-02-21T01:48:54;13.23;;;4.80;;
44486;SDS011;30191;50.908;6.962;2024-02-21T01:51:20;8.57;;;4.20;;
44486;SDS011;30191;50.908;6.962;2024-02-21T01:53:46;12.48;;;4.97;;
44486;SDS011;30191;50.908;6.962;2024-02-21T01:56:12;11.80;;;4.80;;
44486;SDS011;30191;50.908;6.962;2024-02-21T01:58:39;10.50;;;4.53;;
44486;SDS011;30191;50.908;6.962;2024-02-21T02:01:06;15.07;;;5.07;;
44486;SDS011;30191;50.908;6.962;2024-02-21T02:03:32;13.05;;;4.63;;
44486;SDS011;30191;50.908;6.962;2024-02-21T02:05:58;12.27;;;5.03;;
44486;SDS011;30191;50.908;6.962;2024-02-21T02:08:24;16.63;;;5.07;;
44486;SDS011;30191;50.908;6.962;2024-02-21T02:10:50;11.68;;;4.88;;
44486;SDS011;30191;50.908;6.962;2024-02-21T02:13:16;11.27;;;4.90;;
44486;SDS011;30191;50.908;6.962;2024-02-21T02:15:45;14.15;;;4.78;;
44486;SDS011;30191;50.908;6.962;2024-02-21T02:18:12;11.98;;;4.78;;
44486;SDS011;30191;50.908;6.962;2024-02-21T02:20:39;13.07;;;5.10;;
44486;SDS011;30191;50.908;6.962;2024-02-21T02:25:43;13.00;;;4.82;;
44486;SDS011;30191;50.908;6.962;2024-02-21T02:28:10;13.00;;;4.70;;
44486;SDS011;30191;50.908;6.962;2024-02-21T02:30:36;11.23;;;4.60;;
44486;SDS011;30191;50.908;6.962;2024-02-21T02:33:02;13.13;;;4.68;;
44486;SDS011;30191;50.908;6.962;2024-02-21T02:35:28;12.60;;;4.25;;
44486;SDS011;30191;50.908;6.962;2024-02-21T02:37:54;13.18;;;4.93;;
44486;SDS011;30191;50.908;6.962;2024-02-21T02:40:20;11.48;;;4.80;;
44486;SDS011;30191;50.908;6.962;2024-02-21T02:42:45;11.82;;;4.75;;
44486;SDS011;30191;50.908;6.962;2024-02-21T02:45:13;14.05;;;5.05;;
44486;SDS011;30191;50.908;6.962;2024-02-21T02:47:39;10.60;;;4.50;;
44486;SDS011;30191;50.908;6.962;2024-02-21T02:50:05;11.93;;;4.55;;
44486;SDS011;30191;50.908;6.962;2024-02-21T02:52:32;13.77;;;4.45;;
44486;SDS011;30191;50.908;6.962;2024-02-21T02:54:57;12.80;;;4.50;;
44486;SDS011;30191;50.908;6.962;2024-02-21T02:57:23;12.65;;;4.53;;
44486;SDS011;30191;50.908;6.962;2024-02-21T02:59:49;14.23;;;4.50;;
44486;SDS011;30191;50.908;6.962;2024-02-21T03:02:15;11.50;;;4.40;;
44486;SDS011;30191;50.908;6.962;2024-02-21T03:04:41;14.77;;;4.47;;
44486;SDS011;30191;50.908;6.962;2024-02-21T03:07:07;10.27;;;4.22;;
44486;SDS011;30191;50.908;6.962;2024-02-21T03:09:32;9.73;;;4.40;;
44486;SDS011;30191;50.908;6.962;2024-02-21T03:11:58;14.45;;;4.55;;
44486;SDS011;30191;50.908;6.962;2024-02-21T03:14:31;16.45;;;5.22;;
44486;SDS011;30191;50.908;6.962;2024-02-21T03:17:00;12.65;;;3.90;;
44486;SDS011;30191;50.908;6.962;2024-02-21T03:19:26;9.30;;;4.00;;
44486;SDS011;30191;50.908;6.962;2024-02-21T03:21:52;9.57;;;4.45;;
44486;SDS011;30191;50.908;6.962;2024-02-21T03:24:18;13.70;;;4.65;;
44486;SDS011;30191;50.908;6.962;2024-02-21T03:26:45;12.10;;;4.35;;
44486;SDS011;30191;50.908;6.962;2024-02-21T03:29:15;12.57;;;4.22;;
44486;SDS011;30191;50.908;6.962;2024-02-21T03:31:40;11.25;;;4.28;;
44486;SDS011;30191;50.908;6.962;2024-02-21T03:34:06;14.57;;;4.85;;
44486;SDS011;30191;50.908;6.962;2024-02-21T03:36:32;11.30;;;4.30;;
44486;SDS011;30191;50.908;6.962;2024-02-21T03:38:58;13.98;;;4.70;;
44486;SDS011;30191;50.908;6.962;2024-02-21T03:41:24;13.20;;;4.85;;
44486;SDS011;30191;50.908;6.962;2024-02-21T03:43:49;10.93;;;4.20;;
44486;SDS011;30191;50.908;6.962;2024-02-21T03:46:15;11.07;;;4.70;;
44486;SDS011;30191;50.908;6.962;2024-02-21T03:48:41;13.80;;;4.28;;
44486;SDS011;30191;50.908;6.962;2024-02-21T03:51:06;12.95;;;4.45;;
44486;SDS011;30191;50.908;6.962;2024-02-21T03:53:32;12.90;;;4.68;;
44486;SDS011;30191;50.908;6.962;2024-02-21T03:56:00;12.60;;;4.20;;
44486;SDS011;30191;50.908;6.962;2024-02-21T03:58:32;10.45;;;4.20;;
44486;SDS011;30191;50.908;6.962;2024-02-21T04:01:01;11.75;;;4.20;;
44486;SDS011;30191;50.908;6.962;2024-02-21T04:03:27;10.70;;;3.92;;
44486;SDS011;30191;50.908;6.962;2024-02-21T04:05:53;7.90;;;3.65;;
44486;SDS011;30191;50.908;6.962;2024-02-21T04:08:19;10.32;;;4.00;;
44486;SDS011;30191;50.908;6.962;2024-02-21T04:10:45;9.63;;;3.95;;
44486;SDS011;30191;50.908;6.962;2024-02-21T04:13:10;12.20;;;4.10;;
44486;SDS011;30191;50.908;6.962;2024-02-21T04:15:36;10.70;;;3.72;;
44486;SDS011;30191;50.908;6.962;2024-02-21T04:18:02;11.50;;;3.53;;
44486;SDS011;30191;50.908;6.962;2024-02-21T04:20:30;9.70;;;3.42;;
44486;SDS011;30191;50.908;6.962;2024-02-21T04:22:57;10.93;;;3.92;;
44486;SDS011;30191;50.908;6.962;2024-02-21T04:25:23;13.20;;;3.80;;
44486;SDS011;30191;50.908;6.962;2024-02-21T04:27:49;9.23;;;3.30;;
44486;SDS011;30191;50.908;6.962;2024-02-21T04:30:15;14.27;;;3.92;;
44486;SDS011;30191;50.908;6.962;2024-02-21T04:32:41;9.60;;;3.92;;
44486;SDS011;30191;50.908;6.962;2024-02-21T04:35:07;12.80;;;3.80;;
44486;SDS011;30191;50.908;6.962;2024-02-21T04:37:33;12.50;;;3.83;;
44486;SDS011;30191;50.908;6.962;2024-02-21T04:39:58;12.60;;;4.47;;
44486;SDS011;30191;50.908;6.962;2024-02-21T04:42:24;9.98;;;3.95;;
44486;SDS011;30191;50.908;6.962;2024-02-21T04:44:50;8.27;;;3.33;;
44486;SDS011;30191;50.908;6.962;2024-02-21T04:47:16;11.68;;;3.83;;
44486;SDS011;30191;50.908;6.962;2024-02-21T04:49:41;7.80;;;3.30;;
44486;SDS011;30191;50.908;6.962;2024-02-21T04:52:07;12.13;;;3.50;;
44486;SDS011;30191;50.908;6.962;2024-02-21T04:54:32;10.90;;;3.58;;
44486;SDS011;30191;50.908;6.962;2024-02-21T04:57:00;10.20;;;3.53;;
44486;SDS011;30191;50.908;6.962;2024-02-21T04:59:26;11.63;;;3.60;;
44486;SDS011;30191;50.908;6.962;2024-02-21T05:01:51;9.25;;;3.58;;
44486;SDS011;30191;50.908;6.962;2024-02-21T05:04:17;8.52;;;3.60;;
44486;SDS011;30191;50.908;6.962;2024-02-21T05:06:43;11.02;;;3.67;;
44486;SDS011;30191;50.908;6.962;2024-02-21T05:09:09;10.35;;;3.40;;
44486;SDS011;30191;50.908;6.962;2024-02-21T05:11:35;9.70;;;3.80;;
44486;SDS011;30191;50.908;6.962;2024-02-21T05:14:02;8.25;;;3.15;;
44486;SDS011;30191;50.908;6.962;2024-02-21T05:16:28;10.32;;;3.58;;
44486;SDS011;30191;50.908;6.962;2024-02-21T05:18:54;9.00;;;3.72;;
44486;SDS011;30191;50.908;6.962;2024-02-21T05:21:21;12.20;;;3.60;;
44486;SDS011;30191;50.908;6.962;2024-02-21T05:23:48;11.32;;;3.40;;
44486;SDS011;30191;50.908;6.962;2024-02-21T05:26:21;10.23;;;3.67;;
44486;SDS011;30191;50.908;6.962;2024-02-21T05:28:51;9.90;;;4.07;;
44486;SDS011;30191;50.908;6.962;2024-02-21T05:31:19;13.00;;;3.60;;
44486;SDS011;30191;50.908;6.962;2024-02-21T05:33:46;6.95;;;2.75;;
44486;SDS011;30191;50.908;6.962;2024-02-21T05:36:13;15.68;;;3.72;;
44486;SDS011;30191;50.908;6.962;2024-02-21T05:38:38;10.60;;;3.15;;
44486;SDS011;30191;50.908;6.962;2024-02-21T05:41:04;10.93;;;3.63;;
44486;SDS011;30191;50.908;6.962;2024-02-21T05:43:30;11.05;;;3.33;;
44486;SDS011;30191;50.908;6.962;2024-02-21T05:45:56;9.40;;;3.35;;
44486;SDS011;30191;50.908;6.962;2024-02-21T05:48:22;11.77;;;3.50;;
44486;SDS011;30191;50.908;6.962;2024-02-21T05:50:48;9.38;;;3.35;;
44486;SDS011;30191;50.908;6.962;2024-02-21T05:53:14;10.45;;;3.45;;
44486;SDS011;30191;50.908;6.962;2024-02-21T05:55:40;9.35;;;3.33;;
44486;SDS011;30191;50.908;6.962;2024-02-21T05:58:06;8.35;;;3.35;;
44486;SDS011;30191;50.908;6.962;2024-02-21T06:00:32;10.43;;;3.65;;
44486;SDS011;30191;50.908;6.962;2024-02-21T06:02:58;10.93;;;3.50;;
44486;SDS011;30191;50.908;6.962;2024-02-21T06:05:24;10.00;;;3.40;;
44486;SDS011;30191;50.908;6.962;2024-02-21T06:07:50;7.38;;;3.22;;
44486;SDS011;30191;50.908;6.962;2024-02-21T06:10:15;10.38;;;3.20;;
44486;SDS011;30191;50.908;6.962;2024-02-21T06:12:41;8.50;;;3.42;;
44486;SDS011;30191;50.908;6.962;2024-02-21T06:15:07;8.82;;;3.35;;
44486;SDS011;30191;50.908;6.962;2024-02-21T06:17:33;9.23;;;3.28;;
44486;SDS011;30191;50.908;6.962;2024-02-21T06:19:59;11.18;;;3.47;;
44486;SDS011;30191;50.908;6.962;2024-02-21T06:22:24;16.85;;;3.35;;
44486;SDS011;30191;50.908;6.962;2024-02-21T06:24:50;12.00;;;3.47;;
44486;SDS011;30191;50.908;6.962;2024-02-21T06:27:16;9.30;;;3.38;;
44486;SDS011;30191;50.908;6.962;2024-02-21T06:29:42;10.25;;;3.15;;
44486;SDS011;30191;50.908;6.962;2024-02-21T06:32:07;10.93;;;3.55;;
44486;SDS011;30191;50.908;6.962;2024-02-21T06:34:33;8.73;;;3.17;;
44486;SDS011;30191;50.908;6.962;2024-02-21T06:36:59;12.35;;;2.95;;
44486;SDS011;30191;50.908;6.962;2024-02-21T06:39:24;8.27;;;3.35;;
44486;SDS011;30191;50.908;6.962;2024-02-21T06:41:50;12.02;;;3.20;;
44486;SDS011;30191;50.908;6.962;2024-02-21T06:44:16;8.30;;;3.20;;
44486;SDS011;30191;50.908;6.962;2024-02-21T06:46:42;7.95;;;3.22;;
44486;SDS011;30191;50.908;6.962;2024-02-21T06:49:08;11.30;;;3.58;;
44486;SDS011;30191;50.908;6.962;2024-02-21T06:51:34;7.70;;;3.22;;
44486;SDS011;30191;50.908;6.962;2024-02-21T06:54:00;8.23;;;3.25;;
44486;SDS011;30191;50.908;6.962;2024-02-21T06:56:25;8.55;;;3.10;;
44486;SDS011;30191;50.908;6.962;2024-02-21T06:58:57;10.35;;;3.42;;
44486;SDS011;30191;50.908;6.962;2024-02-21T07:01:23;10.75;;;3.63;;
44486;SDS011;30191;50.908;6.962;2024-02-21T07:03:49;10.13;;;3.17;;
44486;SDS011;30191;50.908;6.962;2024-02-21T07:06:15;9.65;;;2.80;;
44486;SDS011;30191;50.908;6.962;2024-02-21T07:08:40;8.05;;;2.63;;
44486;SDS011;30191;50.908;6.962;2024-02-21T07:11:06;9.85;;;3.17;;
44486;SDS011;30191;50.908;6.962;2024-02-21T07:13:32;6.45;;;2.95;;
44486;SDS011;30191;50.908;6.962;2024-02-21T07:15:58;8.40;;;3.08;;
44486;SDS011;30191;50.908;6.962;2024-02-21T07:18:23;8.32;;;2.90;;
44486;SDS011;30191;50.908;6.962;2024-02-21T07:20:50;8.27;;;2.90;;
44486;SDS011;30191;50.908;6.962;2024-02-21T07:23:16;8.80;;;2.90;;
44486;SDS011;30191;50.908;6.962;2024-02-21T07:25:43;9.30;;;2.90;;
44486;SDS011;30191;50.908;6.962;2024-02-21T07:28:09;7.38;;;3.10;;
44486;SDS011;30191;50.908;6.962;2024-02-21T07:30:34;7.82;;;2.75;;
44486;SDS011;30191;50.908;6.962;2024-02-21T07:33:00;9.80;;;2.90;;
44486;SDS011;30191;50.908;6.962;2024-02-21T07:35:26;8.60;;;3.20;;
44486;SDS011;30191;50.908;6.962;2024-02-21T07:37:51;9.18;;;3.45;;
44486;SDS011;30191;50.908;6.962;2024-02-21T07:40:17;9.70;;;2.78;;
44486;SDS011;30191;50.908;6.962;2024-02-21T07:42:43;8.38;;;2.70;;
44486;SDS011;30191;50.908;6.962;2024-02-21T07:45:09;7.30;;;2.95;;
44486;SDS011;30191;50.908;6.962;2024-02-21T07:47:35;10.55;;;2.97;;
44486;SDS011;30191;50.908;6.962;2024-02-21T07:50:02;7.70;;;3.00;;
44486;SDS011;30191;50.908;6.962;2024-02-21T07:52:28;7.60;;;3.10;;
44486;SDS011;30191;50.908;6.962;2024-02-21T07:54:54;12.95;;;3.40;;
44486;SDS011;30191;50.908;6.962;2024-02-21T07:57:20;10.02;;;3.05;;
44486;SDS011;30191;50.908;6.962;2024-02-21T07:59:45;9.25;;;3.40;;
44486;SDS011;30191;50.908;6.962;2024-02-21T08:02:13;11.70;;;3.35;;
44486;SDS011;30191;50.908;6.962;2024-02-21T08:04:42;10.73;;;3.38;;
44486;SDS011;30191;50.908;6.962;2024-02-21T08:07:08;12.38;;;3.33;;
44486;SDS011;30191;50.908;6.962;2024-02-21T08:09:34;11.63;;;3.25;;
44486;SDS011;30191;50.908;6.962;2024-02-21T08:12:02;9.35;;;3.30;;
44486;SDS011;30191;50.908;6.962;2024-02-21T08:14:29;8.25;;;3.17;;
44486;SDS011;30191;50.908;6.962;2024-02-21T08:16:54;12.80;;;3.60;;
44486;SDS011;30191;50.908;6.962;2024-02-21T08:19:21;10.48;;;3.60;;
44486;SDS011;30191;50.908;6.962;2024-02-21T08:21:47;9.10;;;3.60;;
44486;SDS011;30191;50.908;6.962;2024-02-21T08:24:13;10.48;;;3.55;;
44486;SDS011;30191;50.908;6.962;2024-02-21T08:26:43;9.27;;;3.13;;
44486;SDS011;30191;50.908;6.962;2024-02-21T08:29:12;9.85;;;3.30;;
44486;SDS011;30191;50.908;6.962;2024-02-21T08:31:38;10.43;;;3.28;;
44486;SDS011;30191;50.908;6.962;2024-02-21T08:34:03;10.25;;;3.83;;
44486;SDS011;30191;50.908;6.962;2024-02-21T08:38:58;8.30;;;3.20;;
44486;SDS011;30191;50.908;6.962;2024-02-21T08:41:24;9.30;;;3.55;;
44486;SDS011;30191;50.908;6.962;2024-02-21T08:43:54;11.45;;;3.63;;
44486;SDS011;30191;50.908;6.962;2024-02-21T08:46:20;14.75;;;3.72;;
44486;SDS011;30191;50.908;6.962;2024-02-21T08:48:46;11.15;;;3.78;;
44486;SDS011;30191;50.908;6.962;2024-02-21T08:51:12;12.68;;;3.92;;
44486;SDS011;30191;50.908;6.962;2024-02-21T08:53:39;12.88;;;3.72;;
44486;SDS011;30191;50.908;6.962;2024-02-21T08:56:05;13.32;;;3.40;;
44486;SDS011;30191;50.908;6.962;2024-02-21T08:58:32;13.27;;;3.45;;
44486;SDS011;30191;50.908;6.962;2024-02-21T09:00:58;11.27;;;3.40;;
44486;SDS011;30191;50.908;6.962;2024-02-21T09:03:23;12.07;;;3.55;;
44486;SDS011;30191;50.908;6.962;2024-02-21T09:05:50;9.98;;;3.20;;
44486;SDS011;30191;50.908;6.962;2024-02-21T09:08:15;12.07;;;3.60;;
44486;SDS011;30191;50.908;6.962;2024-02-21T09:10:41;11.80;;;3.22;;
44486;SDS011;30191;50.908;6.962;2024-02-21T09:13:06;11.32;;;3.60;;
44486;SDS011;30191;50.908;6.962;2024-02-21T09:15:35;14.27;;;3.20;;
44486;SDS011;30191;50.908;6.962;2024-02-21T09:18:01;16.60;;;4.00;;
44486;SDS011;30191;50.908;6.962;2024-02-21T09:20:26;11.63;;;3.50;;
44486;SDS011;30191;50.908;6.962;2024-02-21T09:22:52;8.23;;;3.08;;
44486;SDS011;30191;50.908;6.962;2024-02-21T09:25:18;12.25;;;3.40;;
44486;SDS011;30191;50.908;6.962;2024-02-21T09:27:44;13.43;;;3.13;;
44486;SDS011;30191;50.908;6.962;2024-02-21T09:30:10;12.27;;;3.42;;
44486;SDS011;30191;50.908;6.962;2024-02-21T09:32:36;13.00;;;3.38;;
44486;SDS011;30191;50.908;6.962;2024-02-21T09:35:02;14.43;;;4.15;;
44486;SDS011;30191;50.908;6.962;2024-02-21T09:37:30;8.82;;;3.08;;
44486;SDS011;30191;50.908;6.962;2024-02-21T09:39:56;9.40;;;3.00;;
44486;SDS011;30191;50.908;6.962;2024-02-21T09:42:21;8.40;;;2.88;;
44486;SDS011;30191;50.908;6.962;2024-02-21T09:44:54;9.50;;;3.30;;
44486;SDS011;30191;50.908;6.962;2024-02-21T09:47:24;11.15;;;2.92;;
44486;SDS011;30191;50.908;6.962;2024-02-21T09:50:06;10.43;;;3.10;;
44486;SDS011;30191;50.908;6.962;2024-02-21T09:52:33;10.30;;;2.55;;
44486;SDS011;30191;50.908;6.962;2024-02-21T09:55:01;11.35;;;3.42;;
44486;SDS011;30191;50.908;6.962;2024-02-21T09:57:27;10.25;;;3.30;;
44486;SDS011;30191;50.908;6.962;2024-02-21T09:59:53;10.82;;;3.08;;
44486;SDS011;30191;50.908;6.962;2024-02-21T10:02:21;6.47;;;2.67;;
44486;SDS011;30191;50.908;6.962;2024-02-21T10:04:47;8.40;;;3.38;;
44486;SDS011;30191;50.908;6.962;2024-02-21T10:07:12;13.32;;;3.47;;
44486;SDS011;30191;50.908;6.962;2024-02-21T10:09:38;9.88;;;3.50;;
44486;SDS011;30191;50.908;6.962;2024-02-21T10:12:08;15.27;;;3.60;;
44486;SDS011;30191;50.908;6.962;2024-02-21T10:14:35;13.27;;;3.40;;
44486;SDS011;30191;50.908;6.962;2024-02-21T10:17:01;13.65;;;2.95;;
44486;SDS011;30191;50.908;6.962;2024-02-21T10:19:27;10.40;;;3.03;;
44486;SDS011;30191;50.908;6.962;2024-02-21T10:22:00;9.45;;;3.20;;
44486;SDS011;30191;50.908;6.962;2024-02-21T10:24:32;11.40;;;3.08;;
44486;SDS011;30191;50.908;6.962;2024-02-21T10:27:08;8.23;;;2.65;;
44486;SDS011;30191;50.908;6.962;2024-02-21T10:29:35;10.32;;;2.50;;
44486;SDS011;30191;50.908;6.962;2024-02-21T10:32:05;8.07;;;2.60;;
44486;SDS011;30191;50.908;6.962;2024-02-21T10:34:34;8.68;;;2.60;;
44486;SDS011;30191;50.908;6.962;2024-02-21T10:37:04;10.13;;;2.92;;
44486;SDS011;30191;50.908;6.962;2024-02-21T10:39:31;9.23;;;2.58;;
44486;SDS011;30191;50.908;6.962;2024-02-21T10:41:59;10.95;;;2.67;;
44486;SDS011;30191;50.908;6.962;2024-02-21T10:44:29;9.30;;;3.10;;
44486;SDS011;30191;50.908;6.962;2024-02-21T10:47:00;6.95;;;2.58;;
44486;SDS011;30191;50.908;6.962;2024-02-21T10:49:41;8.70;;;2.55;;
44486;SDS011;30191;50.908;6.962;2024-02-21T10:52:13;10.70;;;2.10;;
44486;SDS011;30191;50.908;6.962;2024-02-21T10:57:21;7.93;;;2.53;;
44486;SDS011;30191;50.908;6.962;2024-02-21T10:59:47;9.57;;;2.65;;
44486;SDS011;30191;50.908;6.962;2024-02-21T11:02:13;8.95;;;2.63;;
44486;SDS011;30191;50.908;6.962;2024-02-21T11:04:40;7.40;;;2.33;;
44486;SDS011;30191;50.908;6.962;2024-02-21T11:07:08;10.93;;;2.58;;
44486;SDS011;30191;50.908;6.962;2024-02-21T11:09:34;10.95;;;2.20;;
44486;SDS011;30191;50.908;6.962;2024-02-21T11:12:01;11.75;;;2.63;;
44486;SDS011;30191;50.908;6.962;2024-02-21T11:14:29;8.52;;;2.42;;
44486;SDS011;30191;50.908;6.962;2024-02-21T11:16:57;6.68;;;2.33;;
44486;SDS011;30191;50.908;6.962;2024-02-21T11:19:27;11.07;;;2.53;;
44486;SDS011;30191;50.908;6.962;2024-02-21T11:21:54;6.30;;;2.20;;
44486;SDS011;30191;50.908;6.962;2024-02-21T11:24:30;9.45;;;2.33;;
44486;SDS011;30191;50.908;6.962;2024-02-21T11:27:12;8.85;;;2.47;;
44486;SDS011;30191;50.908;6.962;2024-02-21T11:29:45;9.13;;;2.50;;
44486;SDS011;30191;50.908;6.962;2024-02-21T11:32:15;9.45;;;2.35;;
44486;SDS011;30191;50.908;6.962;2024-02-21T11:34:57;8.90;;;2.47;;
44486;SDS011;30191;50.908;6.962;2024-02-21T11:37:29;8.52;;;2.45;;
44486;SDS011;30191;50.908;6.962;2024-02-21T11:39:56;5.25;;;2.03;;
44486;SDS011;30191;50.908;6.962;2024-02-21T11:42:22;9.23;;;1.95;;
44486;SDS011;30191;50.908;6.962;2024-02-21T11:44:50;10.13;;;2.40;;
44486;SDS011;30191;50.908;6.962;2024-02-21T11:47:17;6.55;;;2.30;;
44486;SDS011;30191;50.908;6.962;2024-02-21T11:49:46;8.02;;;2.40;;
44486;SDS011;30191;50.908;6.962;2024-02-21T11:52:14;7.70;;;2.08;;
44486;SDS011;30191;50.908;6.962;2024-02-21T11:54:44;6.88;;;2.20;;
44486;SDS011;30191;50.908;6.962;2024-02-21T11:57:10;7.47;;;2.25;;
44486;SDS011;30191;50.908;6.962;2024-02-21T11:59:36;5.55;;;1.85;;
44486;SDS011;30191;50.908;6.962;2024-02-21T12:02:02;7.38;;;2.13;;
44486;SDS011;30191;50.908;6.962;2024-02-21T12:04:28;8.32;;;2.28;;
44486;SDS011;30191;50.908;6.962;2024-02-21T12:06:56;12.50;;;2.83;;
44486;SDS011;30191;50.908;6.962;2024-02-21T12:09:23;7.00;;;2.05;;
44486;SDS011;30191;50.908;6.962;2024-02-21T12:11:57;5.72;;;2.17;;
44486;SDS011;30191;50.908;6.962;2024-02-21T12:14:31;8.25;;;2.47;;
44486;SDS011;30191;50.908;6.962;2024-02-21T12:16:58;6.80;;;2.30;;
44486;SDS011;30191;50.908;6.962;2024-02-21T12:19:24;6.25;;;2.17;;
44486;SDS011;30191;50.908;6.962;2024-02-21T12:21:50;12.23;;;2.58;;
44486;SDS011;30191;50.908;6.962;2024-02-21T12:24:20;6.40;;;2.50;;
44486;SDS011;30191;50.908;6.962;2024-02-21T12:26:47;6.78;;;2.25;;
44486;SDS011;30191;50.908;6.962;2024-02-21T12:29:14;9.10;;;2.40;;
44486;SDS011;30191;50.908;6.962;2024-02-21T12:31:39;7.47;;;2.47;;
44486;SDS011;30191;50.908;6.962;2024-02-21T12:34:07;8.57;;;2.45;;
44486;SDS011;30191;50.908;6.962;2024-02-21T12:36:35;10.60;;;2.45;;
44486;SDS011;30191;50.908;6.962;2024-02-21T12:39:05;8.98;;;2.50;;
44486;SDS011;30191;50.908;6.962;2024-02-21T12:41:31;6.20;;;2.50;;
44486;SDS011;30191;50.908;6.962;2024-02-21T12:43:58;8.43;;;2.90;;
44486;SDS011;30191;50.908;6.962;2024-02-21T12:46:23;7.72;;;2.30;;
44486;SDS011;30191;50.908;6.962;2024-02-21T12:48:49;7.85;;;2.42;;
44486;SDS011;30191;50.908;6.962;2024-02-21T12:51:15;12.00;;;2.50;;
44486;SDS011;30191;50.908;6.962;2024-02-21T12:53:45;6.45;;;2.38;;
44486;SDS011;30191;50.908;6.962;2024-02-21T12:56:12;7.57;;;2.47;;
44486;SDS011;30191;50.908;6.962;2024-02-21T12:58:38;8.70;;;2.20;;
44486;SDS011;30191;50.908;6.962;2024-02-21T13:01:03;5.93;;;2.10;;
44486;SDS011;30191;50.908;6.962;2024-02-21T13:03:29;7.85;;;2.25;;
44486;SDS011;30191;50.908;6.962;2024-02-21T13:05:55;8.13;;;2.28;;
44486;SDS011;30191;50.908;6.962;2024-02-21T13:08:21;8.05;;;2.28;;
44486;SDS011;30191;50.908;6.962;2024-02-21T13:10:48;9.52;;;2.33;;
44486;SDS011;30191;50.908;6.962;2024-02-21T13:13:14;8.85;;;2.40;;
44486;SDS011;30191;50.908;6.962;2024-02-21T13:15:40;8.48;;;2.72;;
44486;SDS011;30191;50.908;6.962;2024-02-21T13:18:08;5.82;;;2.20;;
44486;SDS011;30191;50.908;6.962;2024-02-21T13:20:33;6.13;;;2.05;;
44486;SDS011;30191;50.908;6.962;2024-02-21T13:22:59;7.78;;;2.47;;
44486;SDS011;30191;50.908;6.962;2024-02-21T13:25:25;4.80;;;1.92;;
44486;SDS011;30191;50.908;6.962;2024-02-21T13:27:50;9.73;;;2.45;;
44486;SDS011;30191;50.908;6.962;2024-02-21T13:30:16;6.07;;;2.20;;
44486;SDS011;30191;50.908;6.962;2024-02-21T13:32:42;7.63;;;2.28;;
44486;SDS011;30191;50.908;6.962;2024-02-21T13:35:10;5.95;;;2.15;;
44486;SDS011;30191;50.908;6.962;2024-02-21T13:37:36;7.60;;;2.20;;
44486;SDS011;30191;50.908;6.962;2024-02-21T13:40:03;6.88;;;2.03;;
44486;SDS011;30191;50.908;6.962;2024-02-21T13:42:29;7.80;;;2.38;;
44486;SDS011;30191;50.908;6.962;2024-02-21T13:44:55;6.57;;;2.13;;
44486;SDS011;30191;50.908;6.962;2024-02-21T13:47:20;7.20;;;2.25;;
44486;SDS011;30191;50.908;6.962;2024-02-21T13:49:46;8.95;;;2.10;;
44486;SDS011;30191;50.908;6.962;2024-02-21T13:52:12;7.60;;;2.15;;
44486;SDS011;30191;50.908;6.962;2024-02-21T13:54:39;8.82;;;2.45;;
44486;SDS011;30191;50.908;6.962;2024-02-21T13:57:05;8.45;;;2.17;;
44486;SDS011;30191;50.908;6.962;2024-02-21T13:59:30;11.18;;;2.40;;
44486;SDS011;30191;50.908;6.962;2024-02-21T14:01:58;5.53;;;2.13;;
44486;SDS011;30191;50.908;6.962;2024-02-21T14:04:24;6.00;;;2.03;;
44486;SDS011;30191;50.908;6.962;2024-02-21T14:06:50;11.15;;;2.80;;
44486;SDS011;30191;50.908;6.962;2024-02-21T14:09:16;12.73;;;3.08;;
44486;SDS011;30191;50.908;6.962;2024-02-21T14:11:41;6.28;;;2.05;;
44486;SDS011;30191;50.908;6.962;2024-02-21T14:14:07;7.10;;;2.47;;
44486;SDS011;30191;50.908;6.962;2024-02-21T14:16:33;5.72;;;2.25;;
44486;SDS011;30191;50.908;6.962;2024-02-21T14:18:59;6.45;;;2.15;;
44486;SDS011;30191;50.908;6.962;2024-02-21T14:21:24;7.25;;;1.98;;
44486;SDS011;30191;50.908;6.962;2024-02-21T14:23:50;6.50;;;2.15;;
44486;SDS011;30191;50.908;6.962;2024-02-21T14:26:17;8.13;;;1.90;;
44486;SDS011;30191;50.908;6.962;2024-02-21T14:28:43;12.23;;;2.22;;
44486;SDS011;30191;50.908;6.962;2024-02-21T14:31:10;7.57;;;2.10;;
44486;SDS011;30191;50.908;6.962;2024-02-21T14:33:37;9.15;;;2.28;;
44486;SDS011;30191;50.908;6.962;2024-02-21T14:36:02;8.98;;;2.03;;
44486;SDS011;30191;50.908;6.962;2024-02-21T14:38:28;7.07;;;2.35;;
44486;SDS011;30191;50.908;6.962;2024-02-21T14:40:54;4.60;;;2.35;;
44486;SDS011;30191;50.908;6.962;2024-02-21T14:43:20;6.70;;;2.42;;
44486;SDS011;30191;50.908;6.962;2024-02-21T14:45:46;7.05;;;2.53;;